Time;durP1;ratioP1;P1;durP2;ratioP2;P2;SDS_P1;SDS_P2;PMS_P1;PMS_P2;Temp;Humidity;BMP_temperature;BMP_pressure;BME280_temperature;BME280_humidity;BME280_pressure;Samples;Min_cycle;Max_cycle;Signal;HPM_P1;HPM_P2
2021/12/24 00:03:11;;;;;;;13.33;8.50;;;;;;;1.85;41.87;98406.06;1833100;78;22758;-66
2021/12/24 00:05:37;;;;;;;13.95;9.93;;;;;;;1.91;41.78;98402.84;1807442;78;20863;-67
2021/12/24 00:08:04;;;;;;;13.83;9.48;;;;;;;1.90;41.69;98397.76;1812353;79;21109;-67
2021/12/24 00:10:32;;;;;;;13.30;8.85;;;;;;;1.98;41.68;98396.09;1812531;78;20930;-67
2021/12/24 00:13:08;;;;;;;16.65;9.20;;;;;;;1.93;41.63;98402.72;1803495;78;20931;-67
2021/12/24 00:18:31;;;;;;;13.83;9.25;;;;;;;1.87;41.65;98368.70;1816612;78;20926;-69
2021/12/24 00:35:07;;;;;;;15.28;9.80;;;;;;;1.98;41.55;98367.71;1808833;78;20985;-67
2021/12/24 00:36:55;;;;;;;15.28;8.83;;;;;;;1.89;41.72;98343.16;1808018;78;21016;-68
2021/12/24 00:39:21;;;;;;;14.70;9.28;;;;;;;1.91;41.71;98339.06;1808725;78;20978;-67
2021/12/24 00:41:48;;;;;;;16.48;10.32;;;;;;;1.88;41.67;98334.94;1811561;78;20859;-66
2021/12/24 00:44:14;;;;;;;12.73;9.50;;;;;;;1.82;41.71;98335.53;1807991;78;21477;-68
2021/12/24 00:46:41;;;;;;;13.93;9.00;;;;;;;1.84;41.76;98322.61;1800625;78;21146;-67
2021/12/24 00:49:07;;;;;;;12.68;8.63;;;;;;;1.92;41.74;98316.64;1815927;78;20918;-68
2021/12/24 00:57:00;;;;;;;13.78;9.28;;;;;;;1.95;41.76;98295.86;1810426;78;20970;-67
2021/12/24 00:59:26;;;;;;;13.13;9.05;;;;;;;1.98;41.73;98289.02;1810388;78;21126;-68
2021/12/24 01:01:53;;;;;;;13.90;8.93;;;;;;;1.99;41.73;98282.78;1803790;78;21061;-66
2021/12/24 01:04:19;;;;;;;13.70;8.68;;;;;;;2.06;41.67;98282.05;1738174;80;20968;-68
2021/12/24 01:06:46;;;;;;;11.53;8.70;;;;;;;1.96;41.73;98276.51;1744245;80;21084;-66
2021/12/24 01:09:12;;;;;;;11.33;8.23;;;;;;;2.02;41.79;98264.13;1802774;78;21026;-67
2021/12/24 01:11:38;;;;;;;14.90;8.70;;;;;;;1.98;41.90;98257.06;1783980;78;21126;-67
2021/12/24 01:14:05;;;;;;;15.03;8.50;;;;;;;2.03;41.74;98260.07;1779041;78;21478;-67
2021/12/24 01:16:39;;;;;;;12.93;8.80;;;;;;;1.94;41.83;98251.75;1777032;78;21022;-67
2021/12/24 01:19:18;;;;;;;12.35;8.88;;;;;;;1.94;41.92;98258.78;1779526;78;21477;-67
2021/12/24 01:22:26;;;;;;;14.53;8.30;;;;;;;1.85;41.99;98242.14;1787487;78;20859;-67
2021/12/24 01:24:31;;;;;;;;;;;;;;;1.80;42.08;98244.35;1774384;80;21852;-67
2021/12/24 01:37:58;;;;;;;11.38;8.53;;;;;;;1.81;42.10;98214.55;1776933;78;21152;-66
2021/12/24 01:43:06;;;;;;;12.73;8.18;;;;;;;1.85;42.29;98191.01;1775309;78;20987;-67
2021/12/24 01:45:35;;;;;;;12.20;8.83;;;;;;;1.86;42.18;98180.36;1779098;78;20984;-67
2021/12/24 01:48:09;;;;;;;12.78;8.65;;;;;;;1.76;42.45;98178.77;1778484;80;20975;-67
2021/12/24 01:50:37;;;;;;;12.68;8.08;;;;;;;1.64;43.01;98170.25;1745585;80;21138;-67
2021/12/24 01:53:06;;;;;;;12.25;8.50;;;;;;;1.66;44.65;98174.06;1779542;78;20938;-66
2021/12/24 01:55:34;;;;;;;13.25;8.85;;;;;;;1.75;45.27;98150.88;1780425;80;20892;-66
2021/12/24 01:58:01;;;;;;;12.30;8.23;;;;;;;1.79;45.76;98141.77;1773932;78;21477;-66
2021/12/24 02:00:31;;;;;;;11.25;8.50;;;;;;;1.79;45.53;98142.59;1771314;78;20908;-67
2021/12/24 02:02:58;;;;;;;12.95;9.08;;;;;;;1.86;47.41;98146.75;1780288;79;22146;-66
2021/12/24 02:05:25;;;;;;;12.58;8.25;;;;;;;1.95;62.20;98156.36;1790111;79;21655;-67
2021/12/24 02:07:51;;;;;;;14.43;8.85;;;;;;;1.85;47.52;98140.67;1794687;79;20950;-65
2021/12/24 02:10:18;;;;;;;12.68;8.03;;;;;;;1.84;46.46;98134.27;1782559;79;20931;-67
2021/12/24 02:12:46;;;;;;;14.63;8.55;;;;;;;1.83;45.80;98132.61;1784448;79;21528;-66
2021/12/24 02:15:24;;;;;;;12.03;8.45;;;;;;;1.84;45.71;98118.54;1781274;79;22201;-67
2021/12/24 02:28:36;;;;;;;11.53;7.87;;;;;;;1.76;52.14;98104.86;1792589;79;21101;-65
2021/12/24 02:30:57;;;;;;;14.10;8.98;;;;;;;1.76;51.18;98102.72;1789639;79;21037;-66
2021/12/24 02:33:24;;;;;;;12.00;7.55;;;;;;;1.82;52.52;98092.96;1794027;79;20891;-67
2021/12/24 02:35:51;;;;;;;15.72;7.90;;;;;;;1.85;52.77;98091.36;1796483;79;21044;-67
2021/12/24 02:38:17;;;;;;;11.38;7.90;;;;;;;1.95;53.33;98080.78;1796753;79;20879;-67
2021/12/24 02:40:44;;;;;;;12.45;8.20;;;;;;;1.89;52.61;98082.20;1787898;79;21949;-66
2021/12/24 02:43:14;;;;;;;12.58;8.88;;;;;;;1.92;52.35;98066.66;1793717;79;21327;-67
2021/12/24 02:45:40;;;;;;;12.13;9.03;;;;;;;1.80;53.12;98068.17;1797527;79;20875;-67
2021/12/24 02:56:10;;;;;;;11.63;7.92;;;;;;;1.71;53.80;98032.86;1793516;79;20875;-67
2021/12/24 02:58:43;;;;;;;12.33;8.63;;;;;;;1.69;53.75;98030.41;1785776;79;20896;-67
2021/12/24 03:01:11;;;;;;;11.75;8.68;;;;;;;1.70;54.97;98026.79;1777779;79;21572;-66
2021/12/24 03:03:38;;;;;;;11.48;8.53;;;;;;;1.73;55.38;98025.66;1801594;79;20935;-66
2021/12/24 03:06:06;;;;;;;10.90;8.08;;;;;;;1.73;54.81;98010.77;1792218;79;21184;-67
2021/12/24 03:08:33;;;;;;;10.05;7.25;;;;;;;1.78;54.64;98019.48;1790885;79;20919;-67
2021/12/24 03:11:00;;;;;;;12.60;8.75;;;;;;;1.70;54.13;98018.92;1795413;79;20899;-67
2021/12/24 03:13:27;;;;;;;12.43;8.60;;;;;;;1.77;54.76;98005.55;1796159;79;21485;-67
2021/12/24 03:15:56;;;;;;;11.33;8.00;;;;;;;1.75;53.53;97998.32;1792627;79;20975;-65
2021/12/24 03:18:27;;;;;;;12.82;8.45;;;;;;;1.66;53.39;97990.55;1788352;79;21078;-66
2021/12/24 03:21:05;;;;;;;9.20;7.80;;;;;;;1.63;53.83;97984.29;1798897;79;20962;-65
2021/12/24 03:23:39;;;;;;;13.65;8.15;;;;;;;1.77;56.66;97975.91;1791489;79;21005;-66
2021/12/24 03:26:05;;;;;;;11.33;7.75;;;;;;;1.78;57.18;97968.35;1788636;79;20931;-67
2021/12/24 03:28:33;;;;;;;12.88;8.78;;;;;;;1.67;63.84;97964.64;1792557;79;20982;-67
2021/12/24 03:31:00;;;;;;;11.90;7.95;;;;;;;1.82;58.56;97959.22;1798040;79;21114;-65
2021/12/24 03:33:27;;;;;;;9.33;7.37;;;;;;;1.86;58.28;97950.89;1791500;79;20943;-66
2021/12/24 03:35:53;;;;;;;10.18;6.90;;;;;;;1.54;56.41;97955.86;1786292;79;20976;-67
2021/12/24 03:38:20;;;;;;;12.55;7.33;;;;;;;1.71;64.87;97940.63;1803737;79;20907;-67
2021/12/24 03:40:47;;;;;;;8.15;6.92;;;;;;;1.74;58.13;97940.80;1792712;79;20888;-66
2021/12/24 03:43:14;;;;;;;8.90;7.20;;;;;;;1.66;58.16;97938.95;1792104;79;21214;-67
2021/12/24 03:48:39;;;;;;;9.33;6.92;;;;;;;1.88;58.13;97935.82;1797872;79;20891;-66
2021/12/24 03:56:08;;;;;;;10.00;7.33;;;;;;;1.86;56.90;97915.97;1788371;79;21159;-67
2021/12/24 03:58:34;;;;;;;11.90;7.85;;;;;;;1.86;55.00;97916.80;1790187;79;21481;-66
2021/12/24 04:01:19;;;;;;;12.95;7.47;;;;;;;1.84;56.99;97908.27;1791177;79;21375;-67
2021/12/24 04:04:04;;;;;;;9.13;6.92;;;;;;;1.85;56.23;97905.17;1787926;79;20931;-66
2021/12/24 04:06:35;;;;;;;8.85;6.72;;;;;;;1.87;56.12;97903.20;1792067;79;20935;-66
2021/12/24 04:09:24;;;;;;;11.43;7.30;;;;;;;1.85;55.44;97896.78;1803469;79;21396;-66
2021/12/24 04:11:51;;;;;;;8.75;6.40;;;;;;;1.82;57.57;97892.36;1786884;79;21014;-66
2021/12/24 04:14:18;;;;;;;12.53;7.50;;;;;;;1.73;56.22;97882.77;1796521;79;21552;-68
2021/12/24 04:16:45;;;;;;;9.90;7.35;;;;;;;1.68;55.70;97877.17;1785676;79;21047;-66
2021/12/24 04:25:05;;;;;;;8.90;6.83;;;;;;;1.70;55.46;97883.91;1796857;79;20938;-67
2021/12/24 04:27:06;;;;;;;10.50;7.25;;;;;;;1.52;54.19;97871.80;1772639;79;21495;-66
2021/12/24 04:29:33;;;;;;;11.05;7.08;;;;;;;1.57;57.89;97866.92;1796517;79;21058;-67
2021/12/24 04:32:12;;;;;;;10.30;7.72;;;;;;;1.55;57.10;97859.71;1789500;79;20931;-66
2021/12/24 04:34:50;;;;;;;10.80;6.83;;;;;;;1.58;57.23;97837.13;1750324;79;22022;-67
2021/12/24 04:51:24;;;;;;;9.40;6.85;;;;;;;1.74;67.82;97826.75;1797466;79;20966;-67
2021/12/24 05:04:56;;;;;;;11.97;6.93;;;;;;;1.56;75.35;97802.40;1792383;79;20876;-66
2021/12/24 05:09:58;;;;;;;11.78;8.03;;;;;;;1.75;61.77;97791.19;1796910;78;20986;-67
2021/12/24 05:12:24;;;;;;;11.57;7.75;;;;;;;1.56;59.30;97801.09;1783864;79;21485;-67
2021/12/24 05:14:51;;;;;;;12.10;7.45;;;;;;;1.77;62.77;97776.63;1776520;78;21143;-67
2021/12/24 05:17:30;;;;;;;9.60;7.67;;;;;;;1.91;61.91;97781.27;1778983;78;21030;-67
2021/12/24 05:22:57;;;;;;;10.55;7.60;;;;;;;2.02;62.55;97768.37;1791622;78;21039;-67
2021/12/24 05:25:23;;;;;;;10.70;7.90;;;;;;;1.86;97.22;97763.88;1772367;79;20942;-66
2021/12/24 05:27:51;;;;;;;12.07;7.85;;;;;;;1.90;100.00;97761.29;1781008;78;21223;-66
2021/12/24 05:30:19;;;;;;;10.65;7.97;;;;;;;1.97;100.00;97770.65;1787630;78;20983;-68
2021/12/24 05:32:45;;;;;;;12.35;8.38;;;;;;;2.00;77.53;97748.88;1749905;79;21463;-66
2021/12/24 05:35:12;;;;;;;9.65;7.45;;;;;;;1.90;67.65;97756.53;1790150;78;20994;-64
2021/12/24 05:37:38;;;;;;;11.75;8.33;;;;;;;1.93;70.87;97758.33;1783335;79;20990;-65
2021/12/24 05:40:07;;;;;;;8.55;7.05;;;;;;;2.03;66.05;97755.60;1783419;78;21132;-65
2021/12/24 05:42:35;;;;;;;12.43;8.38;;;;;;;2.15;64.54;97752.52;1776768;79;20966;-65
2021/12/24 05:45:05;;;;;;;11.45;7.80;;;;;;;1.99;65.46;97759.02;1776278;79;21022;-65
2021/12/24 05:47:38;;;;;;;12.15;7.78;;;;;;;1.98;76.37;97768.37;1730646;79;21476;-67
2021/12/24 05:50:08;;;;;;;12.13;7.72;;;;;;;2.18;70.64;97756.62;1787467;78;21574;-67
2021/12/24 05:52:44;;;;;;;9.63;8.00;;;;;;;2.22;65.98;97749.59;1775882;78;21158;-66
2021/12/24 05:55:12;;;;;;;11.68;8.35;;;;;;;2.17;63.36;97730.88;1776263;78;21504;-68
2021/12/24 05:57:39;;;;;;;11.90;8.00;;;;;;;2.08;63.02;97717.42;1785700;79;20949;-66
2021/12/24 06:00:08;;;;;;;10.60;8.08;;;;;;;2.06;66.91;97720.67;1795682;78;20978;-65
2021/12/24 06:02:42;;;;;;;12.65;8.18;;;;;;;1.94;66.71;97718.51;1774303;78;20978;-63
2021/12/24 06:05:09;;;;;;;10.25;8.23;;;;;;;1.95;65.79;97710.98;1774941;79;21811;-63
2021/12/24 06:07:36;;;;;;;12.88;9.35;;;;;;;1.96;65.84;97708.67;1790002;79;20935;-67
2021/12/24 06:10:05;;;;;;;11.93;8.55;;;;;;;2.02;65.88;97709.36;1780608;79;21568;-69
2021/12/24 06:12:33;;;;;;;11.83;8.70;;;;;;;2.01;66.27;97709.05;1783044;79;20955;-72
2021/12/24 06:15:04;;;;;;;11.68;8.78;;;;;;;2.08;64.57;97706.94;1787868;79;20895;-65
2021/12/24 06:17:28;;;;;;;11.25;8.73;;;;;;;1.96;62.08;97707.36;1785535;79;22063;-64
2021/12/24 06:19:54;;;;;;;11.85;8.83;;;;;;;2.00;65.16;97716.57;1801983;79;20931;-66
2021/12/24 06:22:20;;;;;;;12.85;8.98;;;;;;;1.96;65.94;97701.63;1776900;79;21002;-66
2021/12/24 06:24:47;;;;;;;11.85;9.00;;;;;;;2.06;62.79;97687.89;1793315;79;21490;-67
2021/12/24 06:27:15;;;;;;;11.95;8.43;;;;;;;1.91;61.84;97688.66;1789913;79;20969;-66
2021/12/24 06:29:41;;;;;;;11.65;7.95;;;;;;;2.02;63.21;97693.14;1791487;79;22027;-68
2021/12/24 06:32:08;;;;;;;10.25;7.80;;;;;;;1.97;61.08;97674.44;1790295;79;20935;-66
2021/12/24 06:34:35;;;;;;;12.50;7.95;;;;;;;2.05;63.72;97671.84;1781080;79;20978;-65
2021/12/24 06:37:03;;;;;;;10.30;7.95;;;;;;;2.15;62.41;97670.37;1779600;79;21037;-65
2021/12/24 06:39:30;;;;;;;11.85;8.55;;;;;;;2.17;62.69;97661.36;1783750;79;21014;-65
2021/12/24 06:41:56;;;;;;;13.50;9.20;;;;;;;2.21;61.31;97651.38;1793654;79;21142;-67
2021/12/24 06:44:23;;;;;;;12.60;8.35;;;;;;;2.17;61.49;97657.91;1791197;79;20927;-66
2021/12/24 06:46:49;;;;;;;11.38;8.58;;;;;;;2.06;61.25;97661.66;1791978;79;21493;-66
2021/12/24 06:49:16;;;;;;;12.50;8.65;;;;;;;2.06;60.81;97670.84;1794993;79;20923;-66
2021/12/24 06:51:42;;;;;;;12.90;8.40;;;;;;;2.17;60.70;97644.79;1792350;79;20974;-65
2021/12/24 06:54:10;;;;;;;14.25;9.03;;;;;;;2.15;66.75;97649.38;1800412;79;21481;-65
2021/12/24 06:56:38;;;;;;;11.08;8.43;;;;;;;2.23;61.57;97646.78;1755777;79;20893;-67
2021/12/24 06:59:05;;;;;;;11.28;8.58;;;;;;;2.16;60.38;97649.23;1780170;79;20880;-67
2021/12/24 07:01:31;;;;;;;12.45;8.85;;;;;;;2.21;67.54;97646.13;1790940;79;21418;-66
2021/12/24 07:03:59;;;;;;;10.88;8.75;;;;;;;2.38;74.39;97643.34;1782565;79;21470;-65
2021/12/24 07:06:25;;;;;;;11.83;8.43;;;;;;;2.42;63.03;97657.77;1725018;82;21180;-65
2021/12/24 07:08:52;;;;;;;11.80;8.15;;;;;;;2.44;61.53;97650.58;1773326;79;20966;-65
2021/12/24 07:11:18;;;;;;;11.18;8.33;;;;;;;2.26;69.42;97628.91;1737671;82;21505;-66
2021/12/24 07:13:45;;;;;;;12.60;8.90;;;;;;;2.30;64.52;97634.16;1711420;82;21757;-67
2021/12/24 07:16:11;;;;;;;11.40;8.40;;;;;;;2.28;67.50;97633.50;1713948;82;21562;-68
2021/12/24 07:18:38;;;;;;;11.80;8.75;;;;;;;2.41;64.46;97632.52;1716911;82;21208;-66
2021/12/24 07:21:05;;;;;;;11.73;8.95;;;;;;;2.36;67.64;97619.08;1737226;80;20994;-68
2021/12/24 07:23:32;;;;;;;14.20;9.53;;;;;;;2.47;63.85;97620.55;1770183;79;20981;-67
2021/12/24 07:25:58;;;;;;;14.18;9.73;;;;;;;2.57;66.90;97621.20;1776696;79;21087;-66
2021/12/24 07:28:24;;;;;;;12.37;8.48;;;;;;;2.60;65.16;97612.17;1784972;79;20892;-68
2021/12/24 07:30:50;;;;;;;17.60;9.68;;;;;;;2.55;66.44;97609.23;1740283;82;23328;-69
2021/12/24 07:33:17;;;;;;;15.83;10.13;;;;;;;2.65;68.27;97605.94;1736080;82;20887;-67
2021/12/24 07:35:44;;;;;;;13.95;9.40;;;;;;;3.03;75.87;97602.58;1772285;79;20974;-68
2021/12/24 07:38:13;;;;;;;15.80;9.48;;;;;;;3.29;74.95;97593.13;1769646;80;20939;-69
2021/12/24 07:40:42;;;;;;;12.28;9.20;;;;;;;3.31;72.14;97590.66;1777757;79;21069;-68
2021/12/24 07:43:09;;;;;;;13.40;9.25;;;;;;;3.18;69.30;97590.89;1775553;79;23294;-71
2021/12/24 07:45:36;;;;;;;11.80;8.98;;;;;;;3.13;63.82;97594.00;1771646;79;21461;-69
2021/12/24 07:48:12;;;;;;;10.88;8.60;;;;;;;2.89;97.56;97584.89;1769097;79;20939;-68
2021/12/24 07:53:08;;;;;;;13.22;9.70;;;;;;;2.84;67.11;97578.02;1774115;79;21067;-67
2021/12/24 07:55:35;;;;;;;12.45;9.43;;;;;;;3.00;67.36;97574.84;1731292;82;21754;-66
2021/12/24 07:58:03;;;;;;;14.05;10.10;;;;;;;3.14;64.62;97577.27;1773140;79;21582;-67
2021/12/24 08:00:30;;;;;;;15.58;11.30;;;;;;;3.14;63.59;97574.63;1771955;79;20955;-68
2021/12/24 08:02:57;;;;;;;14.45;10.40;;;;;;;3.21;62.27;97580.05;1776732;79;21461;-69
2021/12/24 08:05:25;;;;;;;16.70;10.55;;;;;;;3.28;62.70;97590.19;1768254;79;21445;-67
2021/12/24 08:07:53;;;;;;;15.20;10.15;;;;;;;3.26;62.41;97584.30;1795204;79;21936;-70
2021/12/24 08:10:24;;;;;;;14.15;9.95;;;;;;;3.25;61.60;97580.02;1781937;79;21421;-73
2021/12/24 08:12:51;;;;;;;13.58;9.80;;;;;;;3.36;62.39;97562.08;1799425;79;21009;-67
2021/12/24 08:15:18;;;;;;;12.47;9.35;;;;;;;3.44;62.34;97562.53;1789834;79;21447;-69
2021/12/24 08:17:45;;;;;;;13.75;10.40;;;;;;;3.42;61.45;97551.34;1787088;79;20973;-67
2021/12/24 08:20:12;;;;;;;12.15;9.18;;;;;;;3.28;62.96;97546.34;1798410;79;23258;-69
2021/12/24 08:22:39;;;;;;;12.53;9.65;;;;;;;3.23;60.39;97543.41;1790989;79;21128;-68
2021/12/24 08:25:06;;;;;;;12.15;9.23;;;;;;;3.41;61.94;97544.47;1759701;81;20976;-70
2021/12/24 08:27:34;;;;;;;13.35;9.90;;;;;;;3.51;63.21;97531.44;1762301;79;20995;-69
2021/12/24 08:30:02;;;;;;;14.63;10.63;;;;;;;3.64;63.33;97527.74;1749757;81;20955;-68
2021/12/24 08:32:30;;;;;;;12.07;9.65;;;;;;;3.48;60.14;97528.33;1747949;81;20918;-67
2021/12/24 08:34:57;;;;;;;11.60;9.45;;;;;;;3.50;58.87;97516.64;1744198;81;21003;-68
2021/12/24 08:37:23;;;;;;;14.93;9.15;;;;;;;3.57;59.84;97508.89;1749989;81;21508;-70
2021/12/24 08:39:50;;;;;;;11.70;8.18;;;;;;;3.71;60.54;97518.16;1742067;81;20962;-68
2021/12/24 08:42:17;;;;;;;10.68;9.10;;;;;;;3.78;59.65;97510.38;1789960;79;20887;-65
2021/12/24 08:44:43;;;;;;;10.65;8.28;;;;;;;3.65;59.09;97499.64;1754930;81;21822;-67
2021/12/24 08:47:10;;;;;;;12.68;9.33;;;;;;;3.63;62.83;97495.86;1758276;81;20986;-69
2021/12/24 08:49:36;;;;;;;11.93;10.20;;;;;;;3.72;61.62;97489.56;1756002;80;20962;-67
2021/12/24 08:52:04;;;;;;;12.25;9.35;;;;;;;3.58;59.99;97467.95;1757679;81;21061;-69
2021/12/24 08:54:31;;;;;;;13.68;9.75;;;;;;;3.67;60.97;97468.23;1721197;82;20923;-67
2021/12/24 08:56:57;;;;;;;10.88;9.20;;;;;;;3.78;61.77;97464.86;1754467;81;21153;-66
2021/12/24 08:59:24;;;;;;;11.40;9.10;;;;;;;3.92;61.15;97459.64;1762329;81;21489;-69
2021/12/24 09:01:51;;;;;;;11.38;8.43;;;;;;;3.91;59.95;97459.83;1740640;81;21494;-68
2021/12/24 09:04:18;;;;;;;13.68;9.43;;;;;;;4.01;59.94;97466.98;1718073;82;20980;-72
2021/12/24 09:06:45;;;;;;;12.80;9.25;;;;;;;3.96;60.87;97458.80;1720669;82;21130;-70
2021/12/24 09:09:11;;;;;;;10.38;8.80;;;;;;;3.89;59.37;97445.52;1757629;80;21077;-67
2021/12/24 09:11:41;;;;;;;11.48;8.65;;;;;;;3.81;68.76;97440.84;1766320;80;21394;-67
2021/12/24 09:14:07;;;;;;;12.63;9.68;;;;;;;3.91;68.30;97439.58;1772203;80;20974;-69
2021/12/24 09:16:37;;;;;;;11.95;9.33;;;;;;;3.90;65.52;97425.30;1771111;80;20891;-66
2021/12/24 09:19:08;;;;;;;13.45;9.50;;;;;;;3.90;62.46;97429.25;1779380;80;21009;-67
2021/12/24 09:21:34;;;;;;;13.30;8.93;;;;;;;3.88;64.09;97432.56;1777580;79;21142;-70
2021/12/24 09:24:01;;;;;;;14.53;9.90;;;;;;;3.92;62.89;97421.98;1767364;80;20867;-65
2021/12/24 09:26:32;;;;;;;11.97;9.55;;;;;;;3.86;61.68;97431.92;1773950;78;20922;-67
2021/12/24 09:28:56;;;;;;;12.30;9.45;;;;;;;3.90;61.98;97422.67;1738402;82;21433;-69
2021/12/24 09:31:24;;;;;;;12.70;9.25;;;;;;;3.93;61.94;97413.11;1773011;80;21484;-67
2021/12/24 09:33:51;;;;;;;14.13;9.88;;;;;;;3.86;60.27;97414.83;1766341;80;21204;-65
2021/12/24 09:36:23;;;;;;;14.87;9.45;;;;;;;3.94;61.32;97405.52;1775334;80;20982;-68
2021/12/24 09:38:46;;;;;;;12.13;10.08;;;;;;;3.99;59.82;97400.56;1774730;80;21621;-65
2021/12/24 09:41:12;;;;;;;14.07;10.80;;;;;;;4.06;59.36;97393.58;1772242;79;21548;-68
2021/12/24 09:43:38;;;;;;;18.12;10.68;;;;;;;4.08;59.67;97395.53;1775986;80;20979;-64
2021/12/24 09:46:04;;;;;;;17.40;10.20;;;;;;;4.11;58.93;97382.84;1773553;80;21146;-65
2021/12/24 09:48:31;;;;;;;15.50;10.05;;;;;;;4.01;57.61;97389.36;1776598;79;20932;-66
2021/12/24 09:50:57;;;;;;;16.10;10.55;;;;;;;3.98;58.12;97372.13;1771820;79;20947;-67
2021/12/24 09:53:24;;;;;;;14.85;10.78;;;;;;;4.15;58.68;97381.47;1771959;80;21433;-67
2021/12/24 09:55:50;;;;;;;14.90;10.40;;;;;;;4.31;58.61;97368.63;1768461;80;20995;-64
2021/12/24 09:58:16;;;;;;;16.30;11.38;;;;;;;4.44;58.21;97381.16;1767146;80;21862;-68
2021/12/24 10:00:43;;;;;;;18.27;11.95;;;;;;;4.44;58.19;97375.39;1779007;80;21025;-66
2021/12/24 10:03:09;;;;;;;18.32;12.28;;;;;;;4.51;58.48;97371.02;1682784;82;21049;-66
2021/12/24 10:05:41;;;;;;;25.48;11.03;;;;;;;4.59;57.56;97356.44;1783018;79;21017;-68
2021/12/24 10:08:16;;;;;;;14.65;11.50;;;;;;;4.43;57.82;97356.66;1798026;79;20979;-66
2021/12/24 10:10:44;;;;;;;18.25;11.08;;;;;;;4.45;58.05;97349.39;1798248;79;21787;-66
2021/12/24 10:13:43;;;;;;;17.67;9.73;;;;;;;4.38;57.54;97351.92;1798632;79;21007;-69
2021/12/24 10:16:17;;;;;;;21.48;11.83;;;;;;;4.41;57.80;97342.84;1800254;79;21068;-66
2021/12/24 10:18:48;;;;;;;19.48;12.55;;;;;;;4.56;58.54;97334.45;1796705;79;20984;-66
2021/12/24 10:21:18;;;;;;;16.48;10.95;;;;;;;4.56;58.54;97334.45;1794007;79;20991;-67
2021/12/24 10:24:01;;;;;;;15.48;11.00;;;;;;;4.71;58.20;97339.68;1789830;79;21698;-67
2021/12/24 10:26:36;;;;;;;15.08;11.63;;;;;;;4.71;58.20;97339.68;1793871;79;20943;-67
2021/12/24 10:29:09;;;;;;;19.70;13.22;;;;;;;4.79;58.43;97323.77;1790937;79;20974;-68
2021/12/24 10:31:52;;;;;;;16.55;12.05;;;;;;;4.89;58.10;97315.06;1798118;79;20989;-66
2021/12/24 10:34:33;;;;;;;18.82;12.73;;;;;;;4.89;58.10;97315.06;1794954;79;21474;-69
2021/12/24 10:37:08;;;;;;;18.25;13.08;;;;;;;4.97;57.04;97309.18;1777731;79;21217;-67
2021/12/24 10:39:44;;;;;;;17.80;12.60;;;;;;;4.93;58.98;97306.59;1796296;79;20893;-70
2021/12/24 10:42:15;;;;;;;25.92;14.45;;;;;;;4.80;58.42;97309.08;1784161;79;20939;-69
2021/12/24 10:44:44;;;;;;;23.83;13.45;;;;;;;4.90;58.02;97303.53;1804007;79;21278;-72
2021/12/24 10:47:29;;;;;;;18.82;13.78;;;;;;;5.06;57.99;97301.94;1791887;79;21018;-69
2021/12/24 10:50:07;;;;;;;23.83;13.48;;;;;;;5.12;58.19;97293.30;1792809;79;21159;-72
2021/12/24 10:55:16;;;;;;;30.02;16.97;;;;;;;5.16;58.40;97289.79;1786190;79;21003;-69
2021/12/24 10:57:46;;;;;;;28.17;17.57;;;;;;;5.18;58.33;97298.31;1790156;79;21513;-76
2021/12/24 11:00:24;;;;;;;25.80;16.80;;;;;;;5.19;58.39;97303.91;1783170;79;20970;-76
2021/12/24 11:02:54;;;;;;;26.77;13.83;;;;;;;5.23;58.31;97295.43;1795671;79;21112;-75
2021/12/24 11:05:38;;;;;;;16.85;12.68;;;;;;;5.23;58.31;97295.43;1796231;79;20937;-69
2021/12/24 11:08:13;;;;;;;17.90;12.35;;;;;;;5.21;58.44;97273.73;1771262;80;20996;-70
2021/12/24 11:10:44;;;;;;;23.95;12.73;;;;;;;5.36;58.50;97261.77;1754593;80;21572;-65
2021/12/24 11:13:16;;;;;;;19.70;12.63;;;;;;;5.42;58.17;97249.15;1764299;80;21603;-76
2021/12/24 11:15:50;;;;;;;21.42;13.45;;;;;;;5.47;59.11;97252.84;1775973;80;21471;-74
2021/12/24 11:18:23;;;;;;;18.55;12.55;;;;;;;5.39;58.75;97238.48;1776114;80;20889;-66
2021/12/24 11:20:58;;;;;;;24.32;13.53;;;;;;;5.37;59.09;97236.52;1773709;80;20939;-67
2021/12/24 11:23:26;;;;;;;22.05;14.05;;;;;;;5.37;58.13;97225.18;1760709;80;20944;-67
2021/12/24 11:25:56;;;;;;;24.72;13.83;;;;;;;5.47;58.13;97230.43;1778441;80;21058;-67
2021/12/24 11:28:24;;;;;;;27.80;14.58;;;;;;;5.63;58.08;97228.00;1776068;80;21086;-67
2021/12/24 11:31:03;;;;;;;21.90;14.40;;;;;;;5.63;58.08;97228.00;1779820;80;20940;-65
2021/12/24 11:33:32;;;;;;;18.32;14.35;;;;;;;5.73;58.17;97225.83;1769357;80;20872;-65
2021/12/24 11:36:00;;;;;;;26.65;16.12;;;;;;;5.71;57.86;97209.35;1772141;80;21530;-68
2021/12/24 11:38:36;;;;;;;40.92;17.23;;;;;;;5.74;57.80;97220.84;1779362;80;21500;-68
2021/12/24 11:41:03;;;;;;;;;;;;;;;5.78;58.75;97219.46;1768374;80;21151;-68
2021/12/24 11:43:33;;;;;;;29.40;15.15;;;;;;;6.09;58.67;97208.47;1778386;80;20312;-68
2021/12/24 11:46:03;;;;;;;24.98;15.10;;;;;;;6.35;58.55;97209.08;1778643;80;20896;-71
2021/12/24 11:48:33;;;;;;;21.50;15.53;;;;;;;6.36;58.56;97206.75;1777988;80;21435;-68
2021/12/24 11:51:00;;;;;;;34.58;24.37;;;;;;;6.29;63.34;97208.53;1779124;80;20996;-69
2021/12/24 11:53:27;;;;;;;41.65;25.70;;;;;;;6.31;66.31;97206.54;1775545;80;21216;-70
2021/12/24 11:55:54;;;;;;;44.77;27.07;;;;;;;6.46;60.44;97204.05;1775776;80;20951;-68
2021/12/24 11:58:23;;;;;;;33.55;21.12;;;;;;;6.58;59.32;97209.05;1779866;80;21463;-67
2021/12/24 12:00:53;;;;;;;31.10;19.23;;;;;;;6.68;58.92;97203.36;1778776;80;20956;-70
2021/12/24 12:03:41;;;;;;;24.47;16.87;;;;;;;6.81;58.53;97199.42;1774328;80;20988;-69
2021/12/24 12:06:28;;;;;;;22.00;14.53;;;;;;;6.80;58.58;97204.42;1778683;79;21546;-72
2021/12/24 12:08:56;;;;;;;20.12;15.00;;;;;;;6.79;58.71;97197.50;1775807;79;20985;-68
2021/12/24 12:11:25;;;;;;;16.25;12.63;;;;;;;6.87;58.61;97198.63;1767993;79;20980;-69
2021/12/24 12:14:14;;;;;;;18.73;13.53;;;;;;;6.87;58.69;97185.41;1764550;79;21232;-70
2021/12/24 12:16:50;;;;;;;16.67;12.75;;;;;;;6.86;58.54;97191.70;1766277;79;20914;-71
2021/12/24 12:22:33;;;;;;;18.50;14.35;;;;;;;6.99;58.19;97175.86;1760667;79;20994;-69
2021/12/24 12:25:08;;;;;;;23.60;17.35;;;;;;;7.04;58.41;97180.02;1761932;79;21013;-72
2021/12/24 12:27:44;;;;;;;20.60;14.85;;;;;;;7.10;58.33;97177.08;1777728;79;20917;-70
2021/12/24 12:30:40;;;;;;;25.77;16.42;;;;;;;7.18;58.33;97171.59;1778316;79;20974;-72
2021/12/24 12:33:18;;;;;;;28.77;17.05;;;;;;;7.16;58.24;97169.66;1765113;79;20866;-69
2021/12/24 12:35:53;;;;;;;24.72;17.73;;;;;;;7.25;58.50;97162.62;1760532;79;21031;-70
2021/12/24 12:38:35;;;;;;;23.18;16.37;;;;;;;7.42;58.80;97161.20;1769962;79;20937;-70
2021/12/24 12:41:31;;;;;;;32.55;20.37;;;;;;;7.48;58.66;97149.48;1759325;79;20977;-71
2021/12/24 12:43:55;;;;;;;28.80;19.60;;;;;;;7.54;59.82;97148.14;1771102;79;20962;-72
2021/12/24 12:46:30;;;;;;;22.73;16.85;;;;;;;7.56;59.73;97138.15;1773441;79;21130;-73
2021/12/24 12:48:55;;;;;;;24.18;15.88;;;;;;;7.54;58.66;97145.48;1775930;79;20933;-71
2021/12/24 12:51:43;;;;;;;14.68;11.88;;;;;;;7.55;58.43;97143.66;1771063;79;20875;-69
2021/12/24 12:54:37;;;;;;;15.78;13.48;;;;;;;7.55;58.28;97149.77;1759152;79;20890;-72
2021/12/24 12:57:18;;;;;;;14.65;11.60;;;;;;;7.51;58.18;97152.52;1778404;79;20922;-71
2021/12/24 13:00:22;;;;;;;15.90;12.28;;;;;;;7.46;58.23;97149.17;1749719;80;21136;-69
2021/12/24 13:05:45;;;;;;;16.17;12.00;;;;;;;7.67;58.77;97140.16;1777932;79;21445;-69
2021/12/24 13:08:21;;;;;;;14.07;12.47;;;;;;;7.99;58.73;97139.25;1777439;78;21262;-69
2021/12/24 13:11:16;;;;;;;14.33;11.83;;;;;;;7.99;58.44;97146.38;1770873;78;22287;-69
2021/12/24 13:13:56;;;;;;;12.78;10.93;;;;;;;7.98;58.12;97151.35;1763858;80;21130;-68
2021/12/24 13:16:37;;;;;;;14.15;11.60;;;;;;;7.95;58.01;97148.61;1763443;78;20844;-71
2021/12/24 13:24:50;;;;;;;13.03;11.65;;;;;;;7.89;57.65;97136.74;1762512;78;20933;-70
2021/12/24 13:27:17;;;;;;;14.98;12.35;;;;;;;7.87;57.67;97140.91;1770653;78;21837;-70
2021/12/24 13:29:44;;;;;;;16.05;11.93;;;;;;;7.86;57.61;97137.16;1781997;80;20896;-68
2021/12/24 13:32:11;;;;;;;14.95;12.03;;;;;;;7.83;57.57;97139.70;1770454;78;20935;-70
2021/12/24 13:34:38;;;;;;;15.15;11.38;;;;;;;7.81;57.60;97144.91;1741292;80;21093;-67
2021/12/24 13:37:14;;;;;;;14.47;12.45;;;;;;;7.75;57.68;97151.03;1739194;82;20989;-71
2021/12/24 13:39:50;;;;;;;16.27;12.63;;;;;;;7.72;57.90;97151.44;1763851;78;21145;-72
2021/12/24 13:42:17;;;;;;;13.83;11.95;;;;;;;7.71;58.04;97141.89;1736582;80;21552;-74